Time;durP1;ratioP1;P1;durP2;ratioP2;P2;SDS_P1;SDS_P2;PMS_P1;PMS_P2;Temp;Humidity;BMP_temperature;BMP_pressure;BME280_temperature;BME280_humidity;BME280_pressure;Samples;Min_cycle;Max_cycle;Signal;HPM_P1;HPM_P2
2022/05/26 00:01:09;;;;;;;8.13;4.75;;;14.20;99.90;;;;;;5052006;28;20146;-71
2022/05/26 00:03:38;;;;;;;10.93;5.28;;;14.10;99.90;;;;;;5053307;28;20088;-71
2022/05/26 00:06:06;;;;;;;8.82;5.57;;;14.10;99.90;;;;;;5052563;28;20413;-71
2022/05/26 00:08:32;;;;;;;10.20;4.97;;;14.00;99.90;;;;;;5049437;28;20085;-71
2022/05/26 00:10:58;;;;;;;9.93;5.00;;;14.00;99.90;;;;;;5049585;28;20033;-72
2022/05/26 00:13:25;;;;;;;8.77;4.13;;;14.00;99.90;;;;;;5052315;28;20067;-72
2022/05/26 00:15:51;;;;;;;8.95;4.65;;;14.00;99.90;;;;;;5052034;28;20053;-72
2022/05/26 00:18:17;;;;;;;11.60;4.70;;;14.00;99.90;;;;;;5053457;28;20485;-72
2022/05/26 00:20:42;;;;;;;11.63;4.70;;;14.10;99.90;;;;;;5052507;28;20037;-72
2022/05/26 00:23:08;;;;;;;12.77;4.65;;;14.00;99.90;;;;;;5052815;28;20044;-72
2022/05/26 00:25:33;;;;;;;10.50;4.53;;;13.90;99.90;;;;;;5051492;28;20048;-72
2022/05/26 00:27:59;;;;;;;9.98;5.00;;;13.90;99.90;;;;;;5049625;28;20033;-72
2022/05/26 00:30:25;;;;;;;10.93;4.57;;;13.90;99.90;;;;;;5051872;28;20045;-72
2022/05/26 00:32:50;;;;;;;12.90;5.68;;;14.10;99.90;;;;;;5052071;28;20127;-72
2022/05/26 00:35:16;;;;;;;12.30;5.05;;;14.00;99.90;;;;;;5052059;28;20033;-71
2022/05/26 00:37:43;;;;;;;12.80;5.47;;;14.00;99.90;;;;;;5053200;28;20047;-72
2022/05/26 00:40:09;;;;;;;19.38;5.80;;;14.00;99.90;;;;;;5053117;28;20052;-71
2022/05/26 00:42:35;;;;;;;16.25;6.32;;;14.00;99.90;;;;;;5048896;28;21405;-71
2022/05/26 00:45:01;;;;;;;16.77;6.65;;;14.00;99.90;;;;;;5050838;28;20060;-71
2022/05/26 00:47:32;;;;;;;14.85;7.00;;;14.00;99.90;;;;;;5034437;28;20128;-71
2022/05/26 00:50:07;;;;;;;16.50;6.70;;;14.00;99.90;;;;;;5053157;28;20037;-71
2022/05/26 00:52:39;;;;;;;14.70;6.35;;;14.00;99.90;;;;;;5051036;28;20111;-71
2022/05/26 00:55:14;;;;;;;17.48;7.72;;;14.10;99.90;;;;;;5052875;28;20118;-71
2022/05/26 00:57:45;;;;;;;20.90;7.07;;;14.10;99.90;;;;;;5053424;28;20444;-72
2022/05/26 01:00:14;;;;;;;17.80;7.45;;;14.10;99.90;;;;;;5041279;28;20051;-72
2022/05/26 01:03:09;;;;;;;18.23;8.07;;;14.20;99.90;;;;;;5055791;28;20405;-72
2022/05/26 01:05:47;;;;;;;21.35;7.72;;;14.10;99.90;;;;;;5055258;28;20044;-72
2022/05/26 01:08:36;;;;;;;19.45;7.15;;;14.20;99.90;;;;;;5055008;28;20033;-71
2022/05/26 01:11:01;;;;;;;19.02;7.43;;;14.30;99.90;;;;;;5056854;28;20044;-71
2022/05/26 01:13:29;;;;;;;21.08;8.65;;;14.20;99.90;;;;;;5054278;28;20041;-71
2022/05/26 01:16:22;;;;;;;17.58;8.02;;;14.20;99.90;;;;;;5055742;28;20033;-71
2022/05/26 01:18:47;;;;;;;;;;;14.20;99.90;;;;;;5055684;28;20033;-72
2022/05/26 01:21:22;;;;;;;19.08;7.72;;;14.10;99.90;;;;;;5053425;28;19924;-71
2022/05/26 01:24:36;;;;;;;21.25;7.93;;;14.00;99.90;;;;;;5056300;28;20037;-71
2022/05/26 01:27:16;;;;;;;23.45;8.00;;;14.10;99.90;;;;;;5055640;28;20397;-71
2022/05/26 01:30:19;;;;;;;17.42;8.52;;;14.10;99.90;;;;;;5055199;28;20115;-72
2022/05/26 01:33:12;;;;;;;26.60;7.85;;;14.10;99.90;;;;;;5055455;28;20366;-72
2022/05/26 01:35:59;;;;;;;21.63;7.75;;;14.10;99.90;;;;;;5056173;28;20048;-72
2022/05/26 01:38:35;;;;;;;26.48;8.70;;;14.10;99.90;;;;;;5056249;28;20049;-72
2022/05/26 01:41:20;;;;;;;24.52;9.05;;;14.10;99.90;;;;;;5055068;28;20048;-72
2022/05/26 01:44:01;;;;;;;24.70;8.32;;;14.00;99.90;;;;;;5055153;28;20045;-72
2022/05/26 01:46:42;;;;;;;24.88;8.02;;;14.00;99.90;;;;;;5053711;28;20493;-71
2022/05/26 01:49:14;;;;;;;26.10;8.48;;;14.00;99.90;;;;;;5038095;28;20033;-71
2022/05/26 01:51:52;;;;;;;29.02;8.40;;;14.00;99.90;;;;;;5053843;28;20136;-71
2022/05/26 01:54:35;;;;;;;28.40;9.10;;;14.00;99.90;;;;;;5055909;28;20045;-72
2022/05/26 01:57:15;;;;;;;24.38;8.57;;;14.00;99.90;;;;;;5055105;28;20036;-71
2022/05/26 01:59:49;;;;;;;29.25;8.68;;;14.00;99.90;;;;;;5054676;28;20037;-72
2022/05/26 02:02:25;;;;;;;28.50;8.90;;;14.00;99.90;;;;;;5054625;28;20048;-72
2022/05/26 02:04:56;;;;;;;25.20;8.73;;;14.00;99.90;;;;;;5055715;28;20116;-72
2022/05/26 02:07:37;;;;;;;25.02;8.50;;;13.90;99.90;;;;;;5037770;28;20076;-72
2022/05/26 02:10:09;;;;;;;23.08;8.65;;;13.90;99.90;;;;;;5037933;28;20156;-72
2022/05/26 02:12:42;;;;;;;28.10;9.88;;;14.00;99.90;;;;;;5054627;28;20066;-71
2022/05/26 02:15:13;;;;;;;32.38;9.20;;;14.00;99.90;;;;;;5054370;28;20064;-71
2022/05/26 02:17:43;;;;;;;25.80;8.00;;;14.00;99.90;;;;;;5053859;28;20512;-71
2022/05/26 02:20:14;;;;;;;27.10;8.27;;;14.10;99.90;;;;;;5053382;28;20041;-72
2022/05/26 02:23:02;;;;;;;28.15;7.63;;;14.10;99.90;;;;;;5055277;28;20037;-72
2022/05/26 02:25:28;;;;;;;31.00;8.82;;;14.00;99.90;;;;;;5054278;28;20041;-72
2022/05/26 02:27:57;;;;;;;26.90;7.40;;;14.00;99.90;;;;;;5053008;28;20657;-72
2022/05/26 02:30:27;;;;;;;28.35;7.88;;;14.00;99.90;;;;;;5055532;28;20361;-72
2022/05/26 02:32:54;;;;;;;25.98;8.18;;;14.10;99.90;;;;;;5055148;28;20508;-71
2022/05/26 02:35:31;;;;;;;26.50;8.52;;;14.10;99.90;;;;;;5053830;28;20120;-71
2022/05/26 02:38:00;;;;;;;27.67;7.40;;;14.20;99.90;;;;;;5054935;28;20481;-71
2022/05/26 02:40:27;;;;;;;18.55;6.75;;;14.20;99.90;;;;;;5051812;28;20063;-71
2022/05/26 02:42:59;;;;;;;30.83;7.72;;;14.20;99.90;;;;;;5052654;28;20048;-72
2022/05/26 02:45:38;;;;;;;28.80;8.00;;;14.20;99.90;;;;;;5052950;28;20082;-72
2022/05/26 02:48:04;;;;;;;24.73;7.53;;;14.10;99.90;;;;;;5053943;28;20037;-71
2022/05/26 02:50:51;;;;;;;27.33;7.13;;;14.10;99.90;;;;;;5052243;28;20036;-72
2022/05/26 02:53:47;;;;;;;25.25;6.45;;;14.10;99.90;;;;;;5052744;28;20429;-72
2022/05/26 02:56:18;;;;;;;27.58;6.60;;;14.10;99.90;;;;;;5018857;28;20056;-71
2022/05/26 02:59:22;;;;;;;22.23;6.90;;;14.00;99.90;;;;;;5048626;28;20559;-72
2022/05/26 03:02:12;;;;;;;23.52;6.18;;;14.10;99.90;;;;;;5053089;28;20059;-72
2022/05/26 03:04:49;;;;;;;28.42;6.72;;;14.10;99.90;;;;;;5052543;28;20440;-72
2022/05/26 03:07:20;;;;;;;24.08;7.00;;;14.10;99.90;;;;;;5050144;28;20397;-71
2022/05/26 03:09:46;;;;;;;21.15;5.85;;;14.10;99.90;;;;;;5053194;28;20041;-71
2022/05/26 03:12:29;;;;;;;21.90;5.88;;;14.00;99.90;;;;;;5053228;28;20051;-71
2022/05/26 03:14:54;;;;;;;22.58;6.47;;;14.10;99.90;;;;;;5052904;28;20041;-71
2022/05/26 03:17:21;;;;;;;23.55;6.80;;;14.00;99.90;;;;;;5050765;28;20095;-71
2022/05/26 03:19:47;;;;;;;23.45;7.15;;;14.00;99.90;;;;;;5052060;28;20489;-71
2022/05/26 03:22:13;;;;;;;23.95;6.07;;;13.90;99.90;;;;;;5053249;28;20552;-71
2022/05/26 03:24:38;;;;;;;24.98;6.72;;;13.90;99.90;;;;;;5053122;28;20101;-72
2022/05/26 03:27:05;;;;;;;20.25;6.15;;;13.90;99.90;;;;;;5051496;28;20035;-72
2022/05/26 03:29:30;;;;;;;22.60;6.80;;;13.90;99.90;;;;;;5054018;28;20037;-72
2022/05/26 03:31:56;;;;;;;21.90;5.25;;;13.80;99.90;;;;;;5050475;28;20047;-72
2022/05/26 03:42:36;;;;;;;20.45;5.50;;;13.80;99.90;;;;;;5052461;28;20041;-72
2022/05/26 03:45:02;;;;;;;17.65;4.30;;;13.70;99.90;;;;;;5052547;28;20388;-72
2022/05/26 03:47:28;;;;;;;17.73;4.75;;;13.70;99.90;;;;;;5052793;28;20432;-71
2022/05/26 03:49:53;;;;;;;22.35;5.68;;;13.80;99.90;;;;;;5052463;28;20074;-72
2022/05/26 03:52:19;;;;;;;13.50;3.70;;;13.70;99.90;;;;;;5052447;28;20486;-71
2022/05/26 03:54:44;;;;;;;18.02;3.42;;;13.60;99.90;;;;;;5051574;28;20037;-71
2022/05/26 03:57:10;;;;;;;18.75;3.67;;;13.60;99.90;;;;;;5033508;28;20092;-72
2022/05/26 03:59:40;;;;;;;17.05;3.33;;;13.60;99.90;;;;;;5032329;28;20478;-72
2022/05/26 04:02:05;;;;;;;18.05;3.67;;;13.50;99.90;;;;;;5051884;28;20061;-73
2022/05/26 04:04:31;;;;;;;16.67;3.53;;;13.50;99.90;;;;;;5051400;28;20060;-72
2022/05/26 04:06:57;;;;;;;15.77;3.30;;;13.50;99.90;;;;;;5053163;28;20481;-72
2022/05/26 04:09:23;;;;;;;14.77;3.92;;;13.50;99.90;;;;;;5051737;28;20037;-72
2022/05/26 04:11:48;;;;;;;16.30;3.53;;;13.40;99.90;;;;;;5052226;28;20041;-72
2022/05/26 04:14:14;;;;;;;16.23;3.40;;;13.50;99.90;;;;;;5053451;28;20047;-72
2022/05/26 04:16:39;;;;;;;11.98;3.20;;;13.40;99.90;;;;;;5051080;28;20090;-72
2022/05/26 04:19:05;;;;;;;19.15;3.38;;;13.40;99.90;;;;;;5052029;28;20041;-72
2022/05/26 04:21:31;;;;;;;13.57;3.03;;;13.40;99.90;;;;;;5050843;28;20037;-72
2022/05/26 04:23:56;;;;;;;15.45;3.22;;;13.40;99.90;;;;;;5053272;28;20059;-71
2022/05/26 04:26:22;;;;;;;13.48;3.00;;;13.40;99.90;;;;;;5050630;28;20133;-71
2022/05/26 04:28:48;;;;;;;18.27;3.30;;;13.40;99.90;;;;;;5053300;28;20545;-71
2022/05/26 04:31:13;;;;;;;10.98;3.17;;;13.40;99.90;;;;;;5050837;28;20045;-71
2022/05/26 04:33:39;;;;;;;13.75;2.95;;;13.40;99.90;;;;;;5052080;28;20123;-71
2022/05/26 04:36:05;;;;;;;13.32;2.80;;;13.40;99.90;;;;;;5050670;28;20064;-72
2022/05/26 04:38:32;;;;;;;13.75;3.08;;;13.40;99.90;;;;;;5053277;28;20045;-71
2022/05/26 04:40:58;;;;;;;10.50;2.80;;;13.40;99.90;;;;;;5050734;28;20045;-71
2022/05/26 04:43:24;;;;;;;18.48;3.30;;;13.40;99.90;;;;;;5048199;28;20080;-72
2022/05/26 04:45:50;;;;;;;16.63;3.85;;;13.40;99.90;;;;;;5050961;28;20064;-72
2022/05/26 04:48:17;;;;;;;11.07;2.70;;;13.40;99.90;;;;;;5051106;28;20469;-71
2022/05/26 04:50:43;;;;;;;13.45;3.17;;;13.40;99.90;;;;;;5050761;28;20401;-72
2022/05/26 04:53:08;;;;;;;14.93;3.58;;;13.50;99.90;;;;;;5050320;28;20063;-72
2022/05/26 04:55:34;;;;;;;15.07;3.03;;;13.50;99.90;;;;;;5050797;28;20041;-72
2022/05/26 04:57:59;;;;;;;11.73;2.83;;;13.60;99.90;;;;;;5050528;28;20071;-72
2022/05/26 05:00:25;;;;;;;11.85;2.50;;;13.60;99.90;;;;;;5052735;28;20045;-72
2022/05/26 05:02:51;;;;;;;15.25;2.53;;;13.50;99.90;;;;;;5050638;28;20052;-72
2022/05/26 05:05:16;;;;;;;15.65;2.90;;;13.50;99.90;;;;;;5051358;28;20053;-72
2022/05/26 05:07:42;;;;;;;17.60;2.92;;;13.50;99.90;;;;;;5052812;28;20052;-72
2022/05/26 05:10:08;;;;;;;10.63;2.90;;;13.50;99.90;;;;;;5050505;28;20080;-72
2022/05/26 05:12:34;;;;;;;14.18;2.55;;;13.60;99.90;;;;;;5052791;28;20405;-73
2022/05/26 05:15:02;;;;;;;11.02;2.70;;;13.70;99.90;;;;;;5051701;28;20037;-72
2022/05/26 05:17:27;;;;;;;11.93;2.83;;;13.70;99.90;;;;;;5049528;28;20402;-72
2022/05/26 05:19:53;;;;;;;12.48;2.42;;;13.70;99.90;;;;;;5052386;28;20041;-72
2022/05/26 05:22:24;;;;;;;12.30;2.33;;;13.70;99.90;;;;;;5052814;28;20035;-71
2022/05/26 05:24:59;;;;;;;10.40;2.22;;;13.70;99.90;;;;;;5050625;28;20482;-72
2022/05/26 05:27:28;;;;;;;15.05;2.58;;;13.80;99.90;;;;;;5051375;28;20073;-71
2022/05/26 05:29:59;;;;;;;8.45;2.20;;;13.80;99.90;;;;;;5034642;28;20087;-71
2022/05/26 05:32:37;;;;;;;8.25;2.10;;;13.90;99.90;;;;;;5050278;28;20041;-71
2022/05/26 05:35:11;;;;;;;11.50;2.20;;;13.90;99.90;;;;;;5052584;28;20052;-71
2022/05/26 05:37:37;;;;;;;8.75;1.83;;;13.90;99.90;;;;;;5048490;28;20486;-71
2022/05/26 05:40:03;;;;;;;8.30;1.90;;;14.00;99.90;;;;;;5052444;28;20037;-71
2022/05/26 05:42:30;;;;;;;10.20;1.90;;;14.00;99.90;;;;;;5049982;28;20040;-72
2022/05/26 05:44:57;;;;;;;7.85;1.88;;;14.10;99.90;;;;;;5054999;28;20033;-71
2022/05/26 05:47:23;;;;;;;9.23;1.98;;;14.20;99.90;;;;;;5055659;28;20032;-71
2022/05/26 05:49:49;;;;;;;9.65;2.00;;;14.20;99.90;;;;;;5054963;28;20045;-71
2022/05/26 05:52:18;;;;;;;10.98;1.90;;;14.30;99.90;;;;;;5053931;28;20041;-71
2022/05/26 05:54:44;;;;;;;6.65;1.48;;;14.30;99.90;;;;;;5055811;28;20110;-71
2022/05/26 05:57:09;;;;;;;9.20;1.60;;;14.30;99.90;;;;;;5052885;28;20045;-71
2022/05/26 05:59:35;;;;;;;9.27;1.75;;;14.30;99.90;;;;;;5053676;28;20041;-71
2022/05/26 06:02:01;;;;;;;7.28;1.33;;;14.30;99.90;;;;;;5052161;28;20045;-71
2022/05/26 06:04:27;;;;;;;6.50;1.45;;;14.30;99.90;;;;;;5053517;28;20116;-71
2022/05/26 06:06:52;;;;;;;7.45;1.63;;;14.40;99.90;;;;;;5052133;28;20179;-71
2022/05/26 06:09:20;;;;;;;7.20;1.30;;;14.50;99.90;;;;;;5044551;28;20032;-71
2022/05/26 06:11:47;;;;;;;8.85;1.80;;;14.70;99.90;;;;;;5051470;28;20053;-71
2022/05/26 06:14:13;;;;;;;6.05;1.60;;;14.80;99.90;;;;;;5050689;28;20060;-71
2022/05/26 06:16:38;;;;;;;7.63;1.50;;;14.90;99.90;;;;;;5050439;28;20397;-71
2022/05/26 06:19:04;;;;;;;7.68;1.40;;;15.00;99.90;;;;;;5051041;28;20359;-71
2022/05/26 06:21:31;;;;;;;6.78;1.77;;;15.00;99.90;;;;;;5053205;28;20040;-71
2022/05/26 06:23:57;;;;;;;8.55;1.50;;;15.10;99.90;;;;;;5053374;28;20116;-71
2022/05/26 06:26:25;;;;;;;7.80;1.35;;;15.20;99.90;;;;;;5052244;28;20163;-72
2022/05/26 06:31:35;;;;;;;7.85;1.33;;;15.30;99.90;;;;;;5053459;28;20041;-71
2022/05/26 06:39:30;;;;;;;6.80;1.30;;;15.60;99.90;;;;;;5047893;28;20049;-72
2022/05/26 06:42:07;;;;;;;7.55;1.30;;;15.70;99.90;;;;;;5035215;28;20413;-72
2022/05/26 06:44:34;;;;;;;8.65;1.23;;;15.80;99.90;;;;;;5031751;28;20139;-72
2022/05/26 06:47:00;;;;;;;5.20;1.20;;;15.90;99.90;;;;;;5046532;28;20038;-72
2022/05/26 06:49:26;;;;;;;5.85;1.27;;;16.00;99.90;;;;;;5042680;28;20044;-72
2022/05/26 06:51:51;;;;;;;5.68;1.38;;;16.10;99.90;;;;;;5043427;28;20124;-73
2022/05/26 06:54:17;;;;;;;6.15;1.02;;;16.20;99.90;;;;;;5042917;28;20144;-72
2022/05/26 06:56:43;;;;;;;6.80;1.10;;;16.30;99.90;;;;;;5049607;28;20048;-72
2022/05/26 06:59:08;;;;;;;4.95;1.20;;;16.40;99.90;;;;;;5052928;28;20091;-72
2022/05/26 07:01:34;;;;;;;8.07;1.60;;;16.50;99.90;;;;;;5033432;28;20053;-72
2022/05/26 07:04:00;;;;;;;6.13;1.23;;;16.50;99.90;;;;;;5051499;28;20574;-72
2022/05/26 07:06:28;;;;;;;6.80;1.48;;;16.40;99.90;;;;;;5040772;28;20045;-72
2022/05/26 07:08:53;;;;;;;5.82;1.17;;;16.30;99.90;;;;;;5052767;28;20533;-72
2022/05/26 07:11:19;;;;;;;7.07;1.10;;;16.10;99.90;;;;;;5050824;28;20048;-72
2022/05/26 07:13:45;;;;;;;2.97;0.95;;;16.00;99.90;;;;;;5049423;28;20049;-72
2022/05/26 07:16:11;;;;;;;5.65;1.10;;;16.00;99.90;;;;;;5051407;28;20056;-73
2022/05/26 07:18:39;;;;;;;6.60;1.20;;;15.90;99.90;;;;;;5036728;28;20095;-73
2022/05/26 07:21:07;;;;;;;5.90;1.08;;;15.90;99.90;;;;;;5049818;28;20048;-73
2022/05/26 07:23:33;;;;;;;6.13;1.00;;;15.90;99.90;;;;;;5048769;28;20040;-73
2022/05/26 07:25:59;;;;;;;9.07;1.80;;;15.80;99.90;;;;;;5050328;28;20045;-73
2022/05/26 07:28:24;;;;;;;5.43;1.30;;;15.90;99.90;;;;;;5051489;28;20151;-73
2022/05/26 07:30:52;;;;;;;6.38;1.20;;;15.90;99.90;;;;;;5042636;28;20111;-73
2022/05/26 07:33:18;;;;;;;6.57;1.05;;;15.80;99.90;;;;;;5050980;28;20481;-74
2022/05/26 07:35:44;;;;;;;4.93;1.05;;;15.90;99.90;;;;;;5051495;28;20033;-73
2022/05/26 07:43:59;;;;;;;5.93;1.23;;;16.00;99.90;;;;;;5041095;28;20037;-74
2022/05/26 07:46:25;;;;;;;7.18;1.33;;;16.00;99.90;;;;;;5048117;28;20037;-74
2022/05/26 07:48:52;;;;;;;5.40;0.90;;;16.10;99.90;;;;;;5052082;28;20040;-73
2022/05/26 07:51:21;;;;;;;5.88;0.98;;;16.10;99.90;;;;;;5051846;28;20376;-74
2022/05/26 07:53:47;;;;;;;5.65;1.75;;;16.10;99.90;;;;;;5048929;28;20037;-74
2022/05/26 07:56:13;;;;;;;8.27;1.48;;;16.10;99.90;;;;;;5043058;28;20033;-78
2022/05/26 07:58:38;;;;;;;3.70;1.00;;;16.20;99.90;;;;;;5045318;28;20433;-78
2022/05/26 08:01:05;;;;;;;6.88;1.58;;;16.10;99.90;;;;;;5039339;28;20033;-73
2022/05/26 08:03:32;;;;;;;7.57;1.98;;;16.20;99.90;;;;;;5052274;28;20052;-73
2022/05/26 08:05:58;;;;;;;3.83;0.80;;;16.30;99.90;;;;;;5051716;28;20388;-74
2022/05/26 08:08:23;;;;;;;5.20;0.98;;;16.50;99.90;;;;;;5051262;28;20029;-75
2022/05/26 08:10:49;;;;;;;5.20;1.10;;;16.60;99.90;;;;;;5033320;28;20493;-76
2022/05/26 08:13:14;;;;;;;5.95;1.00;;;16.60;99.90;;;;;;5043362;28;20124;-76
2022/05/26 08:15:42;;;;;;;6.80;1.08;;;16.70;99.90;;;;;;5036846;28;20079;-76
2022/05/26 08:18:08;;;;;;;5.47;2.15;;;16.70;99.90;;;;;;5052335;28;20033;-76
2022/05/26 08:20:35;;;;;;;6.68;1.10;;;16.70;99.90;;;;;;5049578;28;20498;-75
2022/05/26 08:23:01;;;;;;;9.30;1.33;;;16.70;99.90;;;;;;5049884;28;20079;-75
2022/05/26 08:25:28;;;;;;;5.85;1.10;;;16.60;99.90;;;;;;5051721;28;20496;-76
2022/05/26 08:27:54;;;;;;;6.35;1.10;;;16.50;99.90;;;;;;5050657;28;20477;-76
2022/05/26 08:30:20;;;;;;;4.72;1.00;;;16.50;99.90;;;;;;5051656;28;20043;-76
2022/05/26 08:32:45;;;;;;;4.00;1.05;;;16.60;99.90;;;;;;5050259;28;20036;-76
2022/05/26 08:35:12;;;;;;;5.63;1.20;;;16.50;99.90;;;;;;5050152;28;20064;-75
2022/05/26 08:37:37;;;;;;;4.55;1.02;;;16.50;99.90;;;;;;5048818;28;20095;-76
2022/05/26 08:40:05;;;;;;;4.85;1.15;;;16.50;99.90;;;;;;5049878;28;20045;-75
2022/05/26 08:42:34;;;;;;;4.72;0.95;;;16.50;99.90;;;;;;5049785;28;20126;-76
2022/05/26 08:45:12;;;;;;;5.72;1.05;;;16.60;99.90;;;;;;5051060;28;20041;-75
2022/05/26 08:47:46;;;;;;;5.93;1.13;;;16.70;99.90;;;;;;5045364;28;20087;-75
2022/05/26 08:50:16;;;;;;;4.07;0.90;;;16.80;99.90;;;;;;5036210;28;20524;-75
2022/05/26 08:53:03;;;;;;;7.28;1.45;;;16.80;99.90;;;;;;5031980;28;20045;-75
2022/05/26 08:55:32;;;;;;;5.30;0.95;;;16.90;99.90;;;;;;5047754;28;20124;-75
2022/05/26 08:58:09;;;;;;;5.30;0.93;;;17.00;99.90;;;;;;5051082;28;20033;-75
2022/05/26 09:00:37;;;;;;;6.95;1.20;;;17.10;99.90;;;;;;5043257;28;20045;-75
2022/05/26 09:03:25;;;;;;;3.83;1.27;;;17.20;99.90;;;;;;5051649;28;20057;-75
2022/05/26 09:06:02;;;;;;;3.35;0.80;;;17.00;99.90;;;;;;5048367;28;20090;-75
2022/05/26 09:14:01;;;;;;;5.93;0.90;;;17.10;99.90;;;;;;5045759;28;20049;-76
2022/05/26 09:16:30;;;;;;;6.32;0.95;;;17.30;99.90;;;;;;5047119;28;20037;-76
2022/05/26 09:19:10;;;;;;;6.40;2.15;;;17.50;99.90;;;;;;5053677;28;20072;-76
2022/05/26 09:21:36;;;;;;;4.88;0.80;;;17.50;99.90;;;;;;5051012;28;20085;-76
2022/05/26 09:24:30;;;;;;;5.88;1.23;;;17.30;99.90;;;;;;5040956;28;20083;-76
2022/05/26 09:27:01;;;;;;;6.43;0.90;;;17.40;99.90;;;;;;5051690;28;20045;-76
2022/05/26 09:29:34;;;;;;;4.00;0.80;;;17.30;99.90;;;;;;5039013;28;20088;-76
2022/05/26 09:32:02;;;;;;;6.95;1.00;;;17.40;99.90;;;;;;5052408;28;20097;-76
2022/05/26 09:34:33;;;;;;;6.53;1.00;;;17.50;99.90;;;;;;5047475;28;20072;-76
2022/05/26 09:37:07;;;;;;;5.05;0.90;;;17.70;99.90;;;;;;5046633;28;20447;-75
2022/05/26 09:39:39;;;;;;;5.65;0.90;;;17.80;99.90;;;;;;5048713;28;20497;-76
2022/05/26 09:42:27;;;;;;;6.43;1.15;;;17.80;99.90;;;;;;5054739;28;20086;-76
2022/05/26 09:44:57;;;;;;;6.57;0.98;;;17.90;99.90;;;;;;5035662;28;20041;-75
2022/05/26 09:47:45;;;;;;;6.38;0.98;;;17.90;99.90;;;;;;5054109;28;20040;-76
2022/05/26 09:50:38;;;;;;;4.03;1.10;;;17.80;99.90;;;;;;5054941;28;20053;-76
2022/05/26 09:53:10;;;;;;;8.30;1.13;;;17.80;99.90;;;;;;5053193;28;20056;-76
2022/05/26 09:55:54;;;;;;;4.43;0.90;;;17.90;99.90;;;;;;5037301;28;20088;-76
2022/05/26 09:58:34;;;;;;;6.28;1.20;;;17.90;99.90;;;;;;5054436;28;20048;-76
2022/05/26 10:01:23;;;;;;;4.55;0.77;;;17.90;99.90;;;;;;5050091;28;20124;-75
2022/05/26 10:04:25;;;;;;;3.65;0.90;;;17.90;99.90;;;;;;5032246;28;20041;-76
2022/05/26 10:07:08;;;;;;;6.10;1.13;;;17.90;99.90;;;;;;5053701;28;20036;-76
2022/05/26 10:09:52;;;;;;;4.68;0.88;;;18.20;99.90;;;;;;5053910;28;20507;-76
2022/05/26 10:12:44;;;;;;;5.97;0.95;;;18.20;99.90;;;;;;5053529;28;20077;-76
2022/05/26 10:15:47;;;;;;;5.57;0.90;;;18.30;99.90;;;;;;5043377;28;20048;-76
2022/05/26 10:18:32;;;;;;;5.28;0.80;;;18.60;99.90;;;;;;5050191;28;20056;-76
2022/05/26 10:21:06;;;;;;;5.57;0.90;;;18.50;99.90;;;;;;5051033;28;20553;-76
2022/05/26 10:23:45;;;;;;;5.20;1.10;;;18.50;99.90;;;;;;5051402;28;20055;-76
2022/05/26 10:26:26;;;;;;;6.10;1.08;;;18.60;99.90;;;;;;5052492;28;20043;-76
2022/05/26 10:28:52;;;;;;;5.22;1.00;;;18.40;99.90;;;;;;5051540;28;20047;-76
2022/05/26 10:31:39;;;;;;;5.10;0.98;;;18.30;99.90;;;;;;5053304;28;20044;-77
2022/05/26 10:34:32;;;;;;;5.72;1.10;;;18.00;99.90;;;;;;5053168;28;20044;-76
2022/05/26 10:37:11;;;;;;;5.57;1.52;;;17.70;99.90;;;;;;5035095;28;20362;-76
2022/05/26 10:40:01;;;;;;;5.97;1.00;;;17.70;99.90;;;;;;5045946;28;20044;-76
2022/05/26 10:43:10;;;;;;;4.35;0.90;;;17.80;99.90;;;;;;5051467;28;20453;-76
2022/05/26 10:45:42;;;;;;;6.07;1.10;;;17.80;99.90;;;;;;5033636;28;20151;-76
2022/05/26 10:48:17;;;;;;;4.38;1.20;;;17.90;99.90;;;;;;5054635;28;20052;-76
2022/05/26 10:50:50;;;;;;;3.95;1.05;;;17.90;99.90;;;;;;5046217;28;20438;-76
2022/05/26 10:53:41;;;;;;;4.97;0.95;;;18.00;99.90;;;;;;5042247;28;20510;-76
2022/05/26 10:56:30;;;;;;;3.80;0.98;;;17.90;99.90;;;;;;5035449;28;20073;-76
2022/05/26 10:59:08;;;;;;;6.82;1.17;;;17.90;99.90;;;;;;5051238;28;20051;-77
2022/05/26 11:02:04;;;;;;;3.78;0.98;;;18.00;99.90;;;;;;5045858;28;20159;-77
2022/05/26 11:04:42;;;;;;;6.97;1.23;;;18.20;99.90;;;;;;4991747;28;20050;-77
2022/05/26 11:07:17;;;;;;;5.75;1.40;;;18.20;99.90;;;;;;5046209;28;20044;-77
2022/05/26 11:09:47;;;;;;;5.50;1.15;;;17.90;99.90;;;;;;5050173;28;20036;-77
2022/05/26 11:12:39;;;;;;;6.32;1.00;;;18.00;99.90;;;;;;5053714;28;20049;-77
2022/05/26 11:18:28;;;;;;;5.25;1.25;;;18.20;99.90;;;;;;5052786;28;20397;-77
2022/05/26 11:20:56;;;;;;;8.45;1.30;;;18.00;99.90;;;;;;5053440;28;20053;-77
2022/05/26 11:23:24;;;;;;;5.25;1.42;;;18.00;99.90;;;;;;5054122;28;20052;-77
2022/05/26 11:25:58;;;;;;;7.93;2.38;;;17.70;99.90;;;;;;5050792;28;20493;-77
2022/05/26 11:28:33;;;;;;;6.32;1.40;;;17.50;99.90;;;;;;5052100;28;20401;-77
2022/05/26 11:36:56;;;;;;;6.85;1.45;;;17.50;99.90;;;;;;5053482;28;20052;-77
2022/05/26 11:39:35;;;;;;;5.18;1.50;;;17.50;99.90;;;;;;5052236;28;20445;-76
2022/05/26 11:42:03;;;;;;;6.07;1.63;;;17.60;99.90;;;;;;5027810;28;20045;-79
2022/05/26 11:44:56;;;;;;;5.07;1.50;;;17.60;99.90;;;;;;5050268;28;20086;-78
2022/05/26 11:47:46;;;;;;;7.20;1.58;;;17.40;99.90;;;;;;4995623;28;20132;-79
2022/05/26 11:50:49;;;;;;;6.82;1.52;;;17.30;99.90;;;;;;5044059;28;20037;-79
2022/05/26 11:53:31;;;;;;;5.38;1.45;;;17.20;99.90;;;;;;5032824;28;20041;-79
2022/05/26 11:56:23;;;;;;;6.35;1.35;;;17.20;99.90;;;;;;5051225;28;20045;-78
2022/05/26 11:59:08;;;;;;;;;;;17.40;99.90;;;;;;5050961;28;20036;-79
2022/05/26 12:01:36;;;;;;;6.05;1.48;;;17.50;99.90;;;;;;5050417;28;19920;-79
2022/05/26 12:04:25;;;;;;;8.63;1.65;;;17.50;99.90;;;;;;5050795;28;20029;-79
2022/05/26 12:06:59;;;;;;;6.75;1.40;;;17.40;99.90;;;;;;5034573;28;20106;-79
2022/05/26 12:09:39;;;;;;;4.57;1.30;;;17.40;99.90;;;;;;5050966;28;20041;-79
2022/05/26 12:12:16;;;;;;;6.93;1.60;;;17.50;99.90;;;;;;5045730;28;20045;-78
2022/05/26 12:14:54;;;;;;;6.30;1.30;;;17.50;99.90;;;;;;5049494;28;20471;-79
2022/05/26 12:17:45;;;;;;;5.43;1.88;;;17.50;99.90;;;;;;5033869;28;20052;-79
2022/05/26 12:20:10;;;;;;;7.13;1.20;;;17.50;99.90;;;;;;5033201;28;20041;-79
2022/05/26 12:22:37;;;;;;;7.90;1.42;;;17.40;99.90;;;;;;5033468;28;20202;-79
2022/05/26 12:25:08;;;;;;;6.45;1.50;;;17.30;99.90;;;;;;5050449;28;20451;-79
2022/05/26 12:27:54;;;;;;;5.82;1.70;;;17.30;99.90;;;;;;5050488;28;20082;-79
2022/05/26 12:30:44;;;;;;;5.22;1.60;;;17.40;99.90;;;;;;5048253;28;20068;-79
2022/05/26 12:33:21;;;;;;;8.50;1.85;;;17.40;99.90;;;;;;5051490;28;20405;-79
2022/05/26 12:35:53;;;;;;;7.50;1.55;;;17.40;99.90;;;;;;5051498;28;20044;-79
2022/05/26 12:38:43;;;;;;;5.38;1.23;;;17.40;99.90;;;;;;5045374;28;20093;-79
2022/05/26 12:41:43;;;;;;;8.60;1.50;;;17.40;99.90;;;;;;5029116;28;20055;-78
2022/05/26 12:44:24;;;;;;;5.50;1.52;;;17.50;99.90;;;;;;5030493;28;20514;-79
2022/05/26 12:47:04;;;;;;;6.53;1.45;;;17.30;99.90;;;;;;5021214;28;20087;-79
2022/05/26 12:50:03;;;;;;;10.38;1.80;;;17.30;99.90;;;;;;5017433;28;20052;-79
2022/05/26 12:52:43;;;;;;;9.82;1.88;;;17.20;99.90;;;;;;5036384;28;20049;-79
2022/05/26 12:55:35;;;;;;;8.10;1.60;;;17.20;99.90;;;;;;5028058;28;20045;-79
2022/05/26 12:58:03;;;;;;;5.47;1.50;;;17.20;99.90;;;;;;5040814;28;20029;-79
2022/05/26 13:00:36;;;;;;;6.10;1.58;;;17.10;99.90;;;;;;5034414;28;20084;-79
2022/05/26 13:03:13;;;;;;;9.13;1.60;;;17.20;99.90;;;;;;5034925;28;20572;-79
2022/05/26 13:05:52;;;;;;;6.63;1.60;;;17.10;99.90;;;;;;5035206;28;20451;-78
2022/05/26 13:08:23;;;;;;;8.23;1.70;;;17.20;99.90;;;;;;5034851;28;20500;-78
2022/05/26 13:10:52;;;;;;;6.60;1.65;;;17.20;99.90;;;;;;5039640;28;20124;-79
2022/05/26 13:13:24;;;;;;;9.63;1.58;;;17.30;99.90;;;;;;5035120;28;20398;-79
2022/05/26 13:15:50;;;;;;;5.47;1.50;;;17.20;99.90;;;;;;5044716;28;20048;-78
2022/05/26 13:18:21;;;;;;;7.47;1.48;;;17.20;99.90;;;;;;5053056;28;20063;-78
2022/05/26 13:20:47;;;;;;;5.97;1.47;;;17.30;99.90;;;;;;5034833;28;20045;-79
2022/05/26 13:23:30;;;;;;;4.40;1.35;;;17.30;99.90;;;;;;5025788;28;20044;-78
2022/05/26 13:25:57;;;;;;;8.15;1.88;;;17.40;99.90;;;;;;5020372;28;20033;-78
2022/05/26 13:28:27;;;;;;;5.70;1.95;;;17.30;99.90;;;;;;5038848;28;20455;-79
2022/05/26 13:33:49;;;;;;;13.07;2.33;;;17.20;99.90;;;;;;5033854;28;20050;-79
2022/05/26 13:36:24;;;;;;;9.88;1.88;;;17.10;99.90;;;;;;5035451;28;20049;-79
2022/05/26 13:38:50;;;;;;;13.10;2.17;;;17.20;99.90;;;;;;5047345;28;20041;-79
2022/05/26 13:41:25;;;;;;;8.43;1.88;;;17.10;99.90;;;;;;5037075;28;20095;-79
2022/05/26 13:43:52;;;;;;;9.43;2.03;;;17.20;99.90;;;;;;5050154;28;20033;-78
2022/05/26 13:46:32;;;;;;;6.88;1.98;;;17.30;99.90;;;;;;5028193;28;20048;-79
2022/05/26 13:49:16;;;;;;;9.75;2.03;;;17.20;99.90;;;;;;5034005;28;20072;-78
2022/05/26 13:51:45;;;;;;;5.05;1.75;;;17.40;99.90;;;;;;5036005;28;20034;-78